Airfield :







YOU CAN JOIN US ON...

 
LOGIN :

Register | Disclaimer

   EN    FR    IT 

 









Legend :    VFR   Marginal VFR   IFR   Intensive IFR   Very Intensive IFR
Visi :
Ceiling :
>= 8 km
>= 3000ft
5 to 8 km
1000 to 3000 ft
1500m to 5 km
500 to 1000 ft
800 to 1500m
200 to 500 ft
< 800m
< 200 ft
Symbols :   Thunderstorms  Fog  Heavy snow  Heavy precipitations  Wind > 20 kt






- Airport Elevation : 84 ft
- IATA code : YJT


CYJT - Stephenville

CURRENT METAR :
  • 011200Z CCA VRB03KT 15SM -RA FEW008 FEW014 SCT018 BKN022 OVC110 13/12 A2983 RMK ST1SF1SC3SC3AS1 ST TR SLP103 DENSITY ALT 100FT

EXPIRED METARs :
  • 011100Z 08007KT 15SM -RA FEW005 FEW016 BKN019 BKN038 OVC095 14/13 A2983 RMK ST1SF1SC3SC2AS1 SLP102 DENSITY ALT 200FT
  • 011000Z 07006KT 15SM -RA FEW016 SCT022 SCT045 BKN095 14/12 A2983 RMK SF1SC3SC1AS3 SF TR SLP105 DENSITY ALT 100FT
  • 010950Z 07005KT 15SM -RA FEW016 SCT024 SCT045 BKN095 14/12 A2983 RMK SF1SC3SC1AS3 SF TR SLP103 DENSITY ALT 100FT
  • 010915Z 06007KT 15SM FEW016 FEW084 SCT110 BKN120 14/12 A2982 RMK SF1AC1AC3AS3 SF TR AC TR SLP099 DENSITY ALT 100FT
  • 010900Z 08007KT 15SM -RA FEW016 SCT070 BKN120 13/12 A2982 RMK SF1AC3AS3 SF TR -RA INTMT SLP099

TAF TAF CYJT
Valid from the 01 at 12:00 until the 02 at 12:00 UTC


011130Z 0112/0212 08005KT P6SM -RA FEW005 BKN020 OVC100
TEMPO 0112/0113 3SM -RA BR SCT005 OVC020
FM011300 VRB03KT 3SM -RA BR BKN005 OVC015
TEMPO 0113/0119 6SM -RA -DZ BR SCT005 OVC015
BECMG 0115/0117 30008KT
FM011900 29010KT 1SM -SHRA BR BKN004 OVC008
FM020300 VRB03KT 3SM -RA BR BKN004 OVC012
PROB30 0206/0212 1SM -RA -DZ BR OVC002 RMK NXT FCST BY 011800Z
CZQX FIR / North America



MET'MAP, your aeronautical weather chart ! - Copyright ORBIFLY December 2007 - Disclaimer

ORBIFLY MET'MAP TEAM :

Programming & Development : Alexandra Zaïnal
Concept & original design : Baudouin d'Aumeries
Assistance for programming : Marc-Olivier Méhu
Technical & hardware support : Manuel Goepfert

Contact : metmap@orbifly.com




SOURCES & CREDITS :

   NOAA